createdAt,value
2023-03-11T00:00:55.289Z,6.20
2023-03-11T00:03:23.386Z,6.20
2023-03-11T00:05:52.741Z,6.20
2023-03-11T00:08:23.870Z,6.30
2023-03-11T00:11:00.467Z,6.10
2023-03-11T00:13:29.915Z,6.10
2023-03-11T00:15:57.910Z,6.10
2023-03-11T00:18:28.036Z,6.10
2023-03-11T00:20:57.048Z,6.10
2023-03-11T00:23:25.910Z,6.10
2023-03-11T00:25:53.390Z,6.10
2023-03-11T00:28:22.231Z,6.10
2023-03-11T00:30:49.081Z,6.00
2023-03-11T00:33:17.191Z,5.90
2023-03-11T00:35:44.611Z,5.80
2023-03-11T00:38:16.546Z,5.80
2023-03-11T00:40:46.336Z,5.80
2023-03-11T00:43:13.778Z,5.80
2023-03-11T00:45:40.976Z,5.70
2023-03-11T00:48:08.645Z,5.70
2023-03-11T00:50:37.637Z,5.60
2023-03-11T00:53:05.396Z,5.60
2023-03-11T00:55:35.676Z,5.60
2023-03-11T00:58:05.744Z,5.60
2023-03-11T01:00:34.232Z,5.50
2023-03-11T01:03:01.728Z,5.50
2023-03-11T01:05:32.544Z,5.50
2023-03-11T01:07:59.823Z,5.40
2023-03-11T01:10:27.877Z,5.50
2023-03-11T01:12:54.823Z,5.50
2023-03-11T01:15:33.525Z,5.40
2023-03-11T01:18:01.408Z,5.40
2023-03-11T01:20:29.220Z,5.40
2023-03-11T01:22:56.495Z,5.40
2023-03-11T01:25:24.500Z,5.40
2023-03-11T01:27:51.910Z,5.40
2023-03-11T01:30:23.962Z,5.40
2023-03-11T01:32:53.254Z,5.40
2023-03-11T01:35:23.399Z,5.40
2023-03-11T01:37:50.878Z,5.40
2023-03-11T01:40:22.565Z,5.40
2023-03-11T01:42:49.405Z,5.30
2023-03-11T01:46:02.390Z,5.30
2023-03-11T01:48:29.671Z,5.30
2023-03-11T01:50:57.318Z,5.30
2023-03-11T01:53:25.315Z,5.30
2023-03-11T01:55:52.793Z,5.30
2023-03-11T01:58:27.120Z,5.30
2023-03-11T02:00:56.557Z,5.30
2023-03-11T02:03:32.198Z,5.30
2023-03-11T02:06:05.607Z,5.40
2023-03-11T02:08:36.845Z,5.20
2023-03-11T02:11:08.997Z,5.20
2023-03-11T02:13:37.816Z,5.20
2023-03-11T02:16:05.507Z,5.20
2023-03-11T02:18:32.862Z,5.20
2023-03-11T02:21:39.546Z,5.10
2023-03-11T02:24:28.119Z,5.10
2023-03-11T02:27:01.335Z,5.10
2023-03-11T02:29:30.082Z,5.00
2023-03-11T02:32:00.537Z,5.00
2023-03-11T02:34:34.730Z,5.00
2023-03-11T02:37:05.266Z,5.00
2023-03-11T02:39:39.089Z,4.90
2023-03-11T02:42:24.896Z,4.90
2023-03-11T02:45:08.109Z,4.90
2023-03-11T02:47:38.046Z,4.90
2023-03-11T02:50:07.587Z,4.90
2023-03-11T02:52:36.132Z,4.90
2023-03-11T02:55:04.028Z,4.90
2023-03-11T02:57:31.030Z,4.80
2023-03-11T02:59:57.949Z,4.80
2023-03-11T03:02:24.737Z,4.80
2023-03-11T03:04:51.562Z,4.80
2023-03-11T03:07:18.335Z,4.80
2023-03-11T03:09:45.172Z,4.80
2023-03-11T03:12:12.213Z,4.70
2023-03-11T03:14:39.096Z,4.70
2023-03-11T03:17:06.088Z,4.70
2023-03-11T03:19:32.960Z,4.70
2023-03-11T03:21:59.744Z,4.80
2023-03-11T03:24:26.648Z,4.70
2023-03-11T03:26:53.490Z,4.70
2023-03-11T03:29:20.420Z,4.60
2023-03-11T03:31:47.490Z,4.60
2023-03-11T03:34:14.348Z,4.60
2023-03-11T03:36:41.263Z,4.60
2023-03-11T03:39:08.169Z,4.60
2023-03-11T03:41:35.136Z,4.60
2023-03-11T03:44:02.395Z,4.50
2023-03-11T03:46:29.252Z,4.50
2023-03-11T03:48:56.140Z,4.50
2023-03-11T03:51:23.125Z,4.50
2023-03-11T03:53:49.959Z,4.50
2023-03-11T03:56:18.478Z,4.50
2023-03-11T03:58:45.372Z,4.60
2023-03-11T04:01:13.438Z,4.40
2023-03-11T04:03:40.534Z,4.40
2023-03-11T04:06:16.405Z,4.40
2023-03-11T04:08:43.844Z,4.40
2023-03-11T04:11:10.716Z,4.40
2023-03-11T04:13:37.646Z,4.40
2023-03-11T04:16:07.021Z,4.40
2023-03-11T04:18:35.549Z,4.40
2023-03-11T04:21:06.870Z,4.30
2023-03-11T04:23:34.403Z,4.30
2023-03-11T04:26:01.980Z,4.40
2023-03-11T04:28:28.838Z,4.30
2023-03-11T04:30:56.600Z,4.30
2023-03-11T04:33:23.592Z,4.30
2023-03-11T04:35:50.515Z,4.40
2023-03-11T04:38:17.618Z,4.30
2023-03-11T04:40:44.563Z,4.30
2023-03-11T04:43:11.491Z,4.30
2023-03-11T04:45:40.119Z,4.30
2023-03-11T04:48:07.382Z,4.20
2023-03-11T04:50:34.680Z,4.20
2023-03-11T04:53:01.738Z,4.20
2023-03-11T04:55:28.580Z,4.20
2023-03-11T04:57:55.462Z,4.20
2023-03-11T05:00:24.923Z,4.20
2023-03-11T05:02:52.702Z,4.20
2023-03-11T05:05:28.132Z,4.20
2023-03-11T05:07:55.022Z,4.20
2023-03-11T05:10:24.769Z,4.20
2023-03-11T05:12:52.475Z,4.30
2023-03-11T05:15:20.389Z,4.30
2023-03-11T05:17:47.696Z,4.30
2023-03-11T05:20:15.892Z,4.30
2023-03-11T05:22:43.092Z,4.40
2023-03-11T05:25:10.271Z,4.40
2023-03-11T05:27:37.108Z,4.40
2023-03-11T05:30:04.717Z,4.40
2023-03-11T05:32:31.669Z,4.50
2023-03-11T05:34:58.534Z,4.50
2023-03-11T05:37:25.422Z,4.50
2023-03-11T05:39:53.072Z,4.50
2023-03-11T05:42:21.454Z,4.60
2023-03-11T05:44:48.889Z,4.60
2023-03-11T05:47:18.202Z,4.60
2023-03-11T05:49:48.254Z,4.60
2023-03-11T05:52:15.589Z,4.60
2023-03-11T05:54:42.648Z,4.60
2023-03-11T05:57:09.581Z,4.70
2023-03-11T05:59:37.696Z,4.80
2023-03-11T06:02:04.690Z,4.70
2023-03-11T06:04:31.796Z,4.70
2023-03-11T06:06:58.770Z,4.70
2023-03-11T06:09:25.933Z,4.70
2023-03-11T06:11:53.227Z,4.70
2023-03-11T06:14:20.294Z,4.70
2023-03-11T06:16:47.358Z,4.70
2023-03-11T06:19:14.344Z,4.80
2023-03-11T06:21:41.245Z,4.80
2023-03-11T06:24:08.295Z,4.80
2023-03-11T06:26:35.234Z,4.80
2023-03-11T06:29:02.088Z,4.80
2023-03-11T06:31:29.740Z,4.80
2023-03-11T06:33:57.197Z,4.80
2023-03-11T06:36:25.536Z,4.80
2023-03-11T06:38:53.984Z,4.80
2023-03-11T06:41:21.075Z,4.80
2023-03-11T06:43:47.949Z,4.80
2023-03-11T06:46:21.689Z,4.80
2023-03-11T06:48:52.243Z,4.80
2023-03-11T06:51:20.997Z,4.80
2023-03-11T06:53:53.006Z,4.80
2023-03-11T06:56:22.738Z,4.80
2023-03-11T06:58:50.252Z,4.80
2023-03-11T07:01:21.340Z,4.80
2023-03-11T07:03:50.040Z,4.90
2023-03-11T07:06:24.235Z,5.00
2023-03-11T07:08:53.710Z,5.00
2023-03-11T07:11:27.719Z,5.00
2023-03-11T07:13:55.513Z,5.10
2023-03-11T07:16:29.483Z,5.10
2023-03-11T07:19:00.937Z,5.10
2023-03-11T07:21:30.265Z,5.00
2023-03-11T07:24:00.298Z,5.00
2023-03-11T07:26:29.543Z,5.00
2023-03-11T07:28:57.828Z,5.10
2023-03-11T07:31:31.748Z,5.10
2023-03-11T07:34:06.136Z,5.10
2023-03-11T07:36:33.125Z,5.10
2023-03-11T07:39:04.672Z,5.20
2023-03-11T07:41:36.342Z,5.20
2023-03-11T07:44:04.750Z,5.20
2023-03-11T07:46:32.980Z,5.30
2023-03-11T07:49:02.496Z,5.50
2023-03-11T07:51:33.104Z,5.90
2023-03-11T07:54:01.434Z,6.70
2023-03-11T07:56:32.406Z,7.20
2023-03-11T07:59:01.956Z,7.90
2023-03-11T08:01:36.208Z,8.70
2023-03-11T08:04:06.497Z,9.30
2023-03-11T08:06:36.698Z,9.90
2023-03-11T08:09:08.774Z,10.40
2023-03-11T08:11:37.565Z,10.90
2023-03-11T08:14:05.557Z,11.40
2023-03-11T08:16:33.025Z,11.80
2023-03-11T08:18:59.872Z,12.10
2023-03-11T08:21:29.918Z,12.40
2023-03-11T08:24:02.390Z,12.70
2023-03-11T08:26:30.479Z,12.80
2023-03-11T08:28:58.948Z,12.90
2023-03-11T08:31:30.304Z,13.00
2023-03-11T08:34:02.508Z,13.20
2023-03-11T08:36:30.307Z,13.30
2023-03-11T08:38:57.910Z,13.50
2023-03-11T08:41:25.730Z,13.70
2023-03-11T08:43:52.879Z,13.70
2023-03-11T08:46:36.737Z,13.60
2023-03-11T08:49:05.528Z,13.70
2023-03-11T08:51:34.836Z,13.70
2023-03-11T08:54:03.042Z,13.70
2023-03-11T08:56:30.279Z,13.60
2023-03-11T08:58:57.637Z,13.40
2023-03-11T09:01:24.494Z,13.10
2023-03-11T09:03:51.880Z,13.00
2023-03-11T09:06:18.988Z,12.60
2023-03-11T09:08:47.608Z,12.60
2023-03-11T09:11:16.392Z,12.50
2023-03-11T09:13:44.062Z,12.50
2023-03-11T09:16:21.718Z,12.70
2023-03-11T09:18:49.036Z,12.90
2023-03-11T09:21:16.420Z,13.30
2023-03-11T09:23:44.477Z,13.50
2023-03-11T09:26:12.652Z,13.50
2023-03-11T09:28:40.375Z,13.50
2023-03-11T09:31:07.937Z,13.50
2023-03-11T09:33:41.250Z,13.60
2023-03-11T09:36:13.107Z,13.60
2023-03-11T09:38:40.036Z,13.50
2023-03-11T09:41:42.394Z,13.50
2023-03-11T09:44:46.312Z,13.50
2023-03-11T09:47:55.979Z,13.60
2023-03-11T09:50:34.215Z,13.70
2023-03-11T09:53:18.086Z,13.70
2023-03-11T09:55:48.846Z,13.80
2023-03-11T09:58:30.376Z,13.90
2023-03-11T10:00:57.440Z,13.90
2023-03-11T10:03:36.790Z,14.10
2023-03-11T10:06:23.121Z,14.20
2023-03-11T10:09:13.624Z,14.40
2023-03-11T10:11:52.392Z,14.70
2023-03-11T10:14:34.684Z,14.90
2023-03-11T10:17:23.761Z,14.90
2023-03-11T10:20:18.659Z,14.70
2023-03-11T10:23:00.320Z,14.50
2023-03-11T10:25:49.803Z,14.20
2023-03-11T10:28:20.746Z,14.00
2023-03-11T10:31:23.805Z,13.90
2023-03-11T10:34:01.975Z,13.90
2023-03-11T10:36:58.240Z,13.80
2023-03-11T10:39:27.176Z,13.50
2023-03-11T10:42:05.342Z,13.40
2023-03-11T10:44:41.386Z,13.50
2023-03-11T10:47:19.236Z,13.70
2023-03-11T10:49:46.315Z,14.00
2023-03-11T10:52:13.754Z,14.20
2023-03-11T10:54:47.971Z,14.50
2023-03-11T10:57:38.869Z,14.70
2023-03-11T11:00:17.065Z,14.80
2023-03-11T11:02:58.100Z,14.80
2023-03-11T11:05:34.556Z,14.60
2023-03-11T11:08:16.989Z,14.50
2023-03-11T11:11:02.289Z,14.40
2023-03-11T11:13:34.504Z,14.20
2023-03-11T11:16:34.031Z,13.90
2023-03-11T11:19:13.856Z,13.40
2023-03-11T11:21:49.402Z,13.10
2023-03-11T11:24:30.168Z,12.70
2023-03-11T11:27:23.732Z,12.40
2023-03-11T11:30:15.882Z,12.00
2023-03-11T11:32:43.509Z,11.80
2023-03-11T11:35:17.731Z,11.50
2023-03-11T11:37:53.504Z,11.40
2023-03-11T11:40:32.381Z,11.30
2023-03-11T11:43:12.269Z,11.20
2023-03-11T11:45:49.152Z,11.10
2023-03-11T11:48:32.674Z,11.00
2023-03-11T11:51:08.864Z,11.00
2023-03-11T11:53:58.221Z,10.90
2023-03-11T11:56:26.295Z,10.70
2023-03-11T11:58:55.338Z,10.60
2023-03-11T12:01:28.424Z,10.40
2023-03-11T12:04:25.311Z,10.20
2023-03-11T12:07:17.385Z,10.10
2023-03-11T12:10:22.682Z,9.90
2023-03-11T12:13:29.064Z,9.70
2023-03-11T12:16:24.358Z,9.50
2023-03-11T12:19:10.483Z,9.50
2023-03-11T12:22:29.331Z,9.40
2023-03-11T12:25:22.417Z,9.30
2023-03-11T12:28:37.043Z,9.20
2023-03-11T12:31:09.949Z,9.10
2023-03-11T12:33:54.957Z,9.00
2023-03-11T12:36:35.111Z,8.90
2023-03-11T12:39:06.518Z,8.90
2023-03-11T12:41:42.144Z,8.80
2023-03-11T12:44:27.188Z,8.80
2023-03-11T12:47:01.496Z,8.80
2023-03-11T12:49:38.691Z,8.80
2023-03-11T12:52:11.784Z,8.80
2023-03-11T12:54:44.797Z,8.80
2023-03-11T12:57:17.884Z,8.80
2023-03-11T13:00:23.048Z,8.90
2023-03-11T13:02:55.914Z,8.90
2023-03-11T13:05:50.837Z,8.90
2023-03-11T13:08:25.815Z,9.00
2023-03-11T13:10:55.873Z,9.00
2023-03-11T13:13:25.382Z,9.10
2023-03-11T13:15:53.176Z,9.10
2023-03-11T13:18:30.644Z,9.30
2023-03-11T13:20:59.652Z,9.40
2023-03-11T13:23:42.443Z,9.50
2023-03-11T13:26:31.470Z,9.60
2023-03-11T13:29:40.846Z,9.80
2023-03-11T13:32:53.761Z,9.90
2023-03-11T13:35:44.710Z,10.10
2023-03-11T13:38:11.392Z,10.20
2023-03-11T13:40:46.841Z,10.30
2023-03-11T13:43:25.852Z,10.30
2023-03-11T13:46:00.452Z,10.30
2023-03-11T13:48:36.103Z,10.30
2023-03-11T13:51:21.824Z,10.40
2023-03-11T13:54:04.424Z,10.40
2023-03-11T13:56:44.811Z,10.40
2023-03-11T13:59:34.922Z,10.50
2023-03-11T14:02:19.121Z,10.50
2023-03-11T14:04:53.761Z,10.60
2023-03-11T14:07:27.744Z,10.60
2023-03-11T14:10:26.014Z,10.70
2023-03-11T14:13:16.364Z,10.70
2023-03-11T14:16:02.075Z,10.70
2023-03-11T14:18:33.194Z,10.80
2023-03-11T14:21:01.208Z,10.80
2023-03-11T14:23:35.353Z,10.90
2023-03-11T14:26:13.230Z,11.10
2023-03-11T14:28:48.821Z,11.20
2023-03-11T14:31:44.063Z,11.50
2023-03-11T14:34:10.943Z,11.80
2023-03-11T14:36:51.046Z,12.20
2023-03-11T14:39:28.335Z,12.70
2023-03-11T14:41:57.452Z,13.20
2023-03-11T14:44:28.177Z,13.70
2023-03-11T14:47:23.152Z,14.10
2023-03-11T14:49:53.558Z,14.40
2023-03-11T14:52:30.866Z,14.70
2023-03-11T14:54:58.965Z,14.80
2023-03-11T14:57:37.937Z,14.80
2023-03-11T15:00:12.140Z,15.00
2023-03-11T15:03:20.221Z,15.20
2023-03-11T15:06:04.091Z,15.50
2023-03-11T15:08:48.796Z,16.00
2023-03-11T15:11:16.337Z,16.40
2023-03-11T15:13:47.400Z,16.60
2023-03-11T15:16:37.200Z,16.80
2023-03-11T15:19:29.833Z,17.00
2023-03-11T15:22:06.269Z,17.30
2023-03-11T15:24:34.041Z,17.70
2023-03-11T15:27:07.052Z,18.20
2023-03-11T15:29:36.467Z,18.60
2023-03-11T15:32:25.469Z,18.90
2023-03-11T15:35:27.956Z,19.30
2023-03-11T15:38:21.862Z,19.60
2023-03-11T15:41:01.136Z,19.90
2023-03-11T15:43:46.603Z,20.20
2023-03-11T15:46:13.666Z,20.40
2023-03-11T15:48:42.715Z,20.50
2023-03-11T15:51:20.473Z,20.40
2023-03-11T15:53:48.366Z,20.20
2023-03-11T15:56:24.114Z,19.80
2023-03-11T15:58:51.064Z,19.30
2023-03-11T16:01:22.848Z,18.70
2023-03-11T16:03:49.751Z,18.10
2023-03-11T16:06:16.688Z,17.60
2023-03-11T16:08:44.889Z,17.00
2023-03-11T16:11:16.378Z,16.60
2023-03-11T16:13:43.255Z,16.10
2023-03-11T16:16:18.365Z,15.60
2023-03-11T16:18:45.276Z,15.10
2023-03-11T16:21:19.087Z,14.60
2023-03-11T16:23:51.932Z,14.20
2023-03-11T16:26:19.775Z,13.70
2023-03-11T16:28:46.600Z,13.30
2023-03-11T16:31:13.888Z,12.90
2023-03-11T16:33:40.749Z,12.60
2023-03-11T16:36:07.956Z,12.40
2023-03-11T16:38:49.228Z,12.10
2023-03-11T16:41:17.307Z,11.80
2023-03-11T16:43:44.900Z,11.50
2023-03-11T16:46:12.127Z,11.30
2023-03-11T16:48:39.001Z,11.00
2023-03-11T16:51:05.974Z,10.80
2023-03-11T16:53:32.940Z,10.60
2023-03-11T16:55:59.891Z,10.40
2023-03-11T16:58:26.822Z,10.20
2023-03-11T17:00:53.606Z,10.00
2023-03-11T17:03:21.794Z,9.80
2023-03-11T17:05:49.233Z,9.70
2023-03-11T17:08:18.156Z,9.50
2023-03-11T17:10:46.509Z,9.40
2023-03-11T17:13:17.036Z,9.30
2023-03-11T17:15:45.781Z,9.10
2023-03-11T17:18:13.708Z,9.10
2023-03-11T17:20:43.538Z,9.00
2023-03-11T17:23:10.722Z,8.90
2023-03-11T17:25:41.567Z,8.80
2023-03-11T17:28:08.996Z,8.80
2023-03-11T17:30:37.550Z,8.70
2023-03-11T17:33:05.051Z,8.70
2023-03-11T17:35:32.243Z,8.70
2023-03-11T17:37:59.289Z,8.50
2023-03-11T17:40:27.068Z,8.50
2023-03-11T17:42:54.121Z,8.40
2023-03-11T17:45:21.115Z,8.40
2023-03-11T17:47:47.991Z,8.30
2023-03-11T17:50:15.234Z,8.30
2023-03-11T17:52:42.150Z,8.20
2023-03-11T17:55:09.970Z,8.20
2023-03-11T17:57:45.088Z,8.20
2023-03-11T18:00:14.872Z,8.10
2023-03-11T18:02:42.167Z,8.10
2023-03-11T18:05:09.553Z,8.10
2023-03-11T18:07:41.097Z,8.00
2023-03-11T18:10:10.067Z,8.00
2023-03-11T18:12:37.472Z,8.00
2023-03-11T18:15:08.423Z,7.90
2023-03-11T18:17:36.278Z,7.90
2023-03-11T18:20:04.669Z,7.90
2023-03-11T18:22:34.021Z,7.80
2023-03-11T18:25:02.095Z,7.80
2023-03-11T18:27:29.068Z,7.80
2023-03-11T18:29:56.091Z,7.80
2023-03-11T18:32:24.694Z,7.70
2023-03-11T18:34:51.880Z,7.70
2023-03-11T18:37:19.021Z,7.70
2023-03-11T18:39:45.908Z,7.70
2023-03-11T18:42:14.214Z,7.80
2023-03-11T18:44:41.830Z,7.70
2023-03-11T18:47:08.818Z,7.60
2023-03-11T18:49:35.786Z,7.60
2023-03-11T18:52:02.727Z,7.60
2023-03-11T18:54:29.769Z,7.60
2023-03-11T18:56:56.673Z,7.50
2023-03-11T18:59:23.744Z,7.50
2023-03-11T19:01:51.083Z,7.40
2023-03-11T19:04:18.286Z,7.40
2023-03-11T19:06:45.600Z,7.30
2023-03-11T19:09:12.921Z,7.30
2023-03-11T19:11:40.002Z,7.20
2023-03-11T19:14:07.093Z,7.20
2023-03-11T19:16:36.246Z,7.10
2023-03-11T19:19:03.649Z,7.10
2023-03-11T19:21:30.553Z,7.10
2023-03-11T19:23:58.120Z,7.00
2023-03-11T19:26:41.428Z,7.00
2023-03-11T19:29:10.777Z,6.90
2023-03-11T19:31:37.769Z,6.90
2023-03-11T19:34:04.945Z,6.90
2023-03-11T19:36:32.262Z,6.90
2023-03-11T19:38:59.254Z,6.90
2023-03-11T19:41:26.459Z,6.90
2023-03-11T19:43:53.491Z,6.80
2023-03-11T19:46:22.709Z,6.80
2023-03-11T19:48:49.918Z,6.80
2023-03-11T19:51:17.666Z,6.80
2023-03-11T19:53:44.773Z,6.90
2023-03-11T19:56:11.856Z,6.90
2023-03-11T19:58:41.488Z,6.90
2023-03-11T20:01:15.992Z,6.90
2023-03-11T20:03:43.161Z,6.90
2023-03-11T20:06:10.349Z,6.90
2023-03-11T20:08:37.811Z,6.90
2023-03-11T20:11:06.002Z,6.80
2023-03-11T20:13:36.501Z,6.80
2023-03-11T20:16:10.192Z,6.80
2023-03-11T20:18:37.319Z,6.80
2023-03-11T20:21:11.361Z,6.70
2023-03-11T20:23:40.093Z,6.70
2023-03-11T20:26:16.223Z,6.60
2023-03-11T20:28:44.030Z,6.60
2023-03-11T20:31:22.992Z,6.60
2023-03-11T20:33:51.912Z,6.50
2023-03-11T20:36:26.782Z,6.50
2023-03-11T20:38:55.633Z,6.40
2023-03-11T20:41:25.151Z,6.40
2023-03-11T20:43:56.279Z,6.30
2023-03-11T20:46:23.896Z,6.30
2023-03-11T20:48:50.849Z,6.30
2023-03-11T20:51:20.545Z,6.30
2023-03-11T20:53:48.991Z,6.20
2023-03-11T20:56:20.493Z,6.20
2023-03-11T20:58:50.919Z,6.10
2023-03-11T21:01:23.852Z,6.10
2023-03-11T21:03:54.623Z,6.00
2023-03-11T21:06:37.285Z,5.90
2023-03-11T21:09:10.434Z,5.90
2023-03-11T21:11:37.583Z,5.80
2023-03-11T21:14:06.947Z,5.80
2023-03-11T21:16:34.960Z,5.70
2023-03-11T21:19:05.347Z,5.60
2023-03-11T21:21:32.552Z,5.60
2023-03-11T21:23:59.597Z,5.60
2023-03-11T21:26:26.821Z,5.50
2023-03-11T21:28:55.399Z,5.50
2023-03-11T21:31:27.075Z,5.50
2023-03-11T21:33:58.827Z,5.40
2023-03-11T21:36:25.864Z,5.50
2023-03-11T21:38:52.972Z,5.40
2023-03-11T21:41:26.678Z,5.40
2023-03-11T21:43:56.156Z,5.40
2023-03-11T21:46:28.701Z,5.30
2023-03-11T21:48:56.334Z,5.30
2023-03-11T21:51:24.103Z,5.30
2023-03-11T21:53:51.136Z,5.30
2023-03-11T21:56:19.940Z,5.30
2023-03-11T21:58:47.669Z,5.20
2023-03-11T22:01:14.715Z,5.20
2023-03-11T22:03:41.936Z,5.20
2023-03-11T22:06:11.640Z,5.20
2023-03-11T22:08:39.941Z,5.20
2023-03-11T22:11:17.373Z,5.20
2023-03-11T22:13:49.784Z,5.10
2023-03-11T22:16:18.200Z,5.10
2023-03-11T22:18:46.580Z,5.00
2023-03-11T22:21:15.648Z,5.00
2023-03-11T22:23:44.671Z,5.00
2023-03-11T22:26:11.525Z,4.90
2023-03-11T22:28:38.483Z,4.90
2023-03-11T22:31:13.214Z,4.90
2023-03-11T22:33:40.573Z,4.90
2023-03-11T22:36:09.361Z,4.80
2023-03-11T22:38:37.085Z,4.80
2023-03-11T22:41:07.645Z,4.80
2023-03-11T22:43:36.305Z,4.70
2023-03-11T22:46:04.822Z,4.80
2023-03-11T22:48:34.106Z,4.70
2023-03-11T22:51:01.982Z,4.70
2023-03-11T22:53:29.251Z,4.60
2023-03-11T22:55:56.085Z,4.60
2023-03-11T22:58:23.161Z,4.60
2023-03-11T23:00:50.070Z,4.60
2023-03-11T23:03:17.046Z,4.50
2023-03-11T23:05:45.890Z,4.60
2023-03-11T23:08:15.780Z,4.60
2023-03-11T23:10:47.174Z,4.50
2023-03-11T23:13:14.677Z,4.50
2023-03-11T23:15:44.220Z,4.50
2023-03-11T23:18:12.015Z,4.50
2023-03-11T23:20:41.885Z,4.40
2023-03-11T23:23:09.894Z,4.40
2023-03-11T23:25:38.306Z,4.40
2023-03-11T23:28:06.506Z,4.30
2023-03-11T23:30:33.658Z,4.30
2023-03-11T23:33:02.891Z,4.30
2023-03-11T23:35:31.031Z,4.30
2023-03-11T23:37:57.956Z,4.40
2023-03-11T23:40:25.436Z,4.30
2023-03-11T23:42:52.657Z,4.30
2023-03-11T23:45:19.550Z,4.30
2023-03-11T23:47:46.440Z,4.30
2023-03-11T23:50:13.410Z,4.40
2023-03-11T23:52:40.424Z,4.40
2023-03-11T23:55:08.627Z,4.40
2023-03-11T23:57:37.127Z,4.40
